Time;durP1;ratioP1;P1;durP2;ratioP2;P2;SDS_P1;SDS_P2;PMS_P1;PMS_P2;Temp;Humidity;BMP_temperature;BMP_pressure;BME280_temperature;BME280_humidity;BME280_pressure;Samples;Min_cycle;Max_cycle;Signal;HPM_P1;HPM_P2
2023/03/07 00:00:08;;;;;;;0.10;0.10;;;2.60;99.90;230.40;231737.00;;;;5011413;28;20203;-71
2023/03/07 00:02:36;;;;;;;0.10;0.10;;;2.60;99.90;230.40;231737.00;;;;5012821;28;20651;-72
2023/03/07 00:05:07;;;;;;;0.10;0.10;;;2.60;99.90;230.40;231737.00;;;;5012223;28;20209;-74
2023/03/07 00:07:35;;;;;;;0.10;0.10;;;2.60;99.90;230.40;231737.00;;;;5016041;28;20191;-71
2023/03/07 00:10:04;;;;;;;0.10;0.10;;;2.60;99.90;230.40;231737.00;;;;5013072;28;20196;-71
2023/03/07 00:12:32;;;;;;;0.10;0.10;;;2.60;99.90;230.40;231737.00;;;;5012787;28;20223;-72
2023/03/07 00:15:00;;;;;;;0.10;0.10;;;2.60;99.90;230.40;231737.00;;;;5016109;28;20259;-71
2023/03/07 00:17:28;;;;;;;0.10;0.10;;;2.70;99.90;230.40;231737.00;;;;5017812;28;20273;-72
2023/03/07 00:19:56;;;;;;;0.10;0.10;;;2.60;99.90;230.40;231737.00;;;;5018390;28;20410;-71
2023/03/07 00:22:26;;;;;;;0.10;0.10;;;2.60;99.90;230.40;231737.00;;;;5018867;28;20207;-72
2023/03/07 00:24:53;;;;;;;0.10;0.10;;;2.60;99.90;230.40;231737.00;;;;5015169;28;20204;-72
2023/03/07 00:27:21;;;;;;;0.10;0.10;;;2.60;99.90;230.40;231737.00;;;;5008390;28;20191;-72
2023/03/07 00:29:49;;;;;;;0.10;0.10;;;2.70;99.90;230.40;231737.00;;;;5015821;28;20202;-72
2023/03/07 00:32:18;;;;;;;0.10;0.10;;;2.60;99.90;230.40;231737.00;;;;5012383;28;20199;-72
2023/03/07 00:34:46;;;;;;;0.10;0.10;;;2.60;99.90;230.40;231737.00;;;;5017709;28;20200;-72
2023/03/07 00:37:14;;;;;;;0.10;0.10;;;2.60;99.90;230.40;231737.00;;;;5022584;28;20250;-71
2023/03/07 00:39:43;;;;;;;0.10;0.10;;;2.60;99.90;230.40;231737.00;;;;5016832;28;20212;-71
2023/03/07 00:42:11;;;;;;;0.10;0.10;;;2.60;99.90;230.40;231737.00;;;;5014232;28;20714;-72
2023/03/07 00:44:39;;;;;;;0.10;0.10;;;2.60;99.90;230.40;231737.00;;;;5015695;28;20491;-71
2023/03/07 00:47:08;;;;;;;0.10;0.10;;;2.60;99.90;230.40;231737.00;;;;5015835;28;20200;-71
2023/03/07 00:49:36;;;;;;;0.10;0.10;;;2.60;99.90;230.40;231737.00;;;;5016363;28;20198;-71
2023/03/07 00:52:05;;;;;;;0.10;0.10;;;2.60;99.90;230.40;231737.00;;;;5014702;28;20219;-73
2023/03/07 00:54:33;;;;;;;0.13;0.13;;;2.60;99.90;230.40;231737.00;;;;5014122;28;20219;-72
2023/03/07 00:57:02;;;;;;;0.10;0.10;;;2.60;99.90;230.40;231737.00;;;;5013731;28;20659;-72
2023/03/07 00:59:31;;;;;;;0.10;0.10;;;2.70;99.90;230.40;231737.00;;;;5013087;28;20207;-72
2023/03/07 01:01:58;;;;;;;0.10;0.10;;;2.60;99.90;230.40;231737.00;;;;5013571;28;20282;-72
2023/03/07 01:04:27;;;;;;;0.10;0.10;;;2.60;99.90;230.40;231737.00;;;;5012396;28;20207;-72
2023/03/07 01:06:55;;;;;;;0.10;0.10;;;2.60;99.90;230.40;231737.00;;;;5012421;28;20254;-72
2023/03/07 01:09:23;;;;;;;0.10;0.10;;;2.60;99.90;230.40;231737.00;;;;5009897;28;20683;-72
2023/03/07 01:11:52;;;;;;;0.10;0.10;;;2.60;99.90;230.40;231737.00;;;;5005609;28;20277;-73
2023/03/07 01:14:21;;;;;;;0.10;0.10;;;2.60;99.90;230.40;231737.00;;;;5012330;28;20258;-73
2023/03/07 01:16:49;;;;;;;0.10;0.10;;;2.70;99.90;230.40;231737.00;;;;5013639;28;20196;-73
2023/03/07 01:19:17;;;;;;;0.10;0.10;;;2.60;99.90;230.40;231737.00;;;;5012579;28;20238;-73
2023/03/07 01:21:46;;;;;;;0.10;0.10;;;2.60;99.90;230.40;231737.00;;;;5013989;28;20262;-72
2023/03/07 01:24:16;;;;;;;0.10;0.10;;;2.60;99.90;230.40;231737.00;;;;5009307;28;20250;-73
2023/03/07 01:26:44;;;;;;;0.10;0.10;;;2.60;99.90;230.40;231737.00;;;;5015473;28;20203;-73
2023/03/07 01:29:12;;;;;;;0.10;0.10;;;2.60;99.90;230.40;231737.00;;;;5012864;28;20462;-72
2023/03/07 01:31:42;;;;;;;0.10;0.10;;;2.50;99.90;230.40;231737.00;;;;5013548;28;20211;-71
2023/03/07 01:34:10;;;;;;;0.10;0.10;;;2.50;99.90;230.40;231737.00;;;;5012015;28;20599;-71
2023/03/07 01:36:38;;;;;;;0.10;0.10;;;2.50;99.90;230.40;231737.00;;;;5013388;28;20211;-72
2023/03/07 01:39:13;;;;;;;0.10;0.10;;;2.50;99.90;230.40;231737.00;;;;5009655;28;20204;-72
2023/03/07 01:41:47;;;;;;;0.10;0.10;;;2.50;99.90;230.40;231737.00;;;;5007639;28;20223;-72
2023/03/07 01:44:20;;;;;;;0.10;0.10;;;2.50;99.90;230.40;231737.00;;;;4997217;28;20487;-72
2023/03/07 01:46:53;;;;;;;0.10;0.10;;;2.50;99.90;230.40;231737.00;;;;5016408;28;20203;-73
2023/03/07 01:49:29;;;;;;;0.10;0.10;;;2.50;99.90;230.40;231737.00;;;;5010051;28;20192;-72
2023/03/07 01:52:07;;;;;;;0.10;0.10;;;2.40;99.90;230.40;231737.00;;;;5011716;28;20702;-74
2023/03/07 01:54:47;;;;;;;0.10;0.10;;;2.40;99.90;230.40;231737.00;;;;5011585;28;20219;-74
2023/03/07 01:57:21;;;;;;;0.08;0.08;;;2.40;99.90;230.40;231737.00;;;;5004335;28;20199;-74
2023/03/07 01:59:55;;;;;;;0.10;0.10;;;2.40;99.90;230.40;231737.00;;;;5011434;28;20270;-74
2023/03/07 02:02:25;;;;;;;0.10;0.10;;;2.40;99.90;230.40;231737.00;;;;5011890;28;20200;-74
2023/03/07 02:05:00;;;;;;;0.10;0.10;;;2.40;99.90;230.40;231737.00;;;;5012205;28;20282;-74
2023/03/07 02:07:34;;;;;;;0.10;0.10;;;2.40;99.90;230.40;231737.00;;;;5010884;28;20195;-74
2023/03/07 02:10:05;;;;;;;0.10;0.10;;;2.40;99.90;230.40;231737.00;;;;5010025;28;20285;-72
2023/03/07 02:12:34;;;;;;;0.10;0.10;;;2.40;99.90;230.40;231737.00;;;;5011862;28;20204;-72
2023/03/07 02:15:03;;;;;;;0.20;0.20;;;2.30;99.90;230.40;231737.00;;;;5012031;28;20220;-72
2023/03/07 02:17:33;;;;;;;0.10;0.10;;;2.30;99.90;230.40;231737.00;;;;5011798;28;20728;-71
2023/03/07 02:20:22;;;;;;;0.10;0.10;;;2.30;99.90;230.40;231737.00;;;;5007734;28;20207;-73
2023/03/07 02:22:50;;;;;;;0.10;0.10;;;2.30;99.90;230.40;231737.00;;;;5011827;28;20667;-73
2023/03/07 02:25:31;;;;;;;0.10;0.10;;;2.30;99.90;230.40;231737.00;;;;5013065;28;20203;-75
2023/03/07 02:28:03;;;;;;;0.10;0.10;;;2.30;99.90;230.40;231737.00;;;;5012196;28;20204;-74
2023/03/07 02:30:32;;;;;;;0.10;0.10;;;2.30;99.90;230.40;231737.00;;;;5014283;28;20219;-72
2023/03/07 02:33:00;;;;;;;0.10;0.10;;;2.30;99.90;230.40;231737.00;;;;5011396;28;20221;-71
2023/03/07 02:35:28;;;;;;;0.10;0.10;;;2.30;99.90;230.40;231737.00;;;;5011644;28;20269;-71
2023/03/07 02:38:04;;;;;;;0.10;0.10;;;2.30;99.90;230.40;231737.00;;;;5010826;28;20238;-72
2023/03/07 02:40:33;;;;;;;0.10;0.10;;;2.30;99.90;230.40;231737.00;;;;5008709;28;20781;-72
2023/03/07 02:43:04;;;;;;;0.10;0.10;;;2.30;99.90;230.40;231737.00;;;;5011932;28;20381;-72
2023/03/07 02:45:32;;;;;;;0.10;0.10;;;2.30;99.90;230.40;231737.00;;;;5003704;28;20619;-72
2023/03/07 02:48:00;;;;;;;0.10;0.10;;;2.30;99.90;230.40;231737.00;;;;5007389;28;20219;-72
2023/03/07 02:50:30;;;;;;;0.10;0.10;;;2.30;99.90;230.40;231737.00;;;;5005578;28;20645;-72
2023/03/07 02:52:59;;;;;;;0.10;0.10;;;2.30;99.90;230.40;231737.00;;;;5008749;28;20208;-72
2023/03/07 02:55:26;;;;;;;0.10;0.10;;;2.30;99.90;230.40;231737.00;;;;5004552;28;20219;-72
2023/03/07 02:58:03;;;;;;;0.10;0.10;;;2.30;99.90;230.40;231737.00;;;;5009177;28;20202;-72
2023/03/07 03:00:31;;;;;;;0.10;0.10;;;2.30;99.90;230.40;231737.00;;;;5010445;28;20722;-72
2023/03/07 03:02:59;;;;;;;0.10;0.10;;;2.30;99.90;230.40;231737.00;;;;5010069;28;20202;-72
2023/03/07 03:05:28;;;;;;;0.10;0.10;;;2.30;99.90;230.40;231737.00;;;;5012395;28;20257;-72
2023/03/07 03:07:56;;;;;;;0.10;0.10;;;2.30;99.90;230.40;231737.00;;;;5009592;28;20630;-72
2023/03/07 03:10:24;;;;;;;0.10;0.10;;;2.30;99.90;230.40;231737.00;;;;5012528;28;20626;-72
2023/03/07 03:12:52;;;;;;;0.10;0.10;;;2.30;99.90;230.40;231737.00;;;;5007731;28;20555;-75
2023/03/07 03:15:21;;;;;;;0.10;0.10;;;2.30;99.90;230.40;231737.00;;;;5023116;28;20230;-74
2023/03/07 03:17:49;;;;;;;0.10;0.10;;;2.30;99.90;230.40;231737.00;;;;5006916;28;20574;-73
2023/03/07 03:20:18;;;;;;;0.10;0.10;;;2.30;99.90;230.40;231737.00;;;;5014412;28;20215;-73
2023/03/07 03:22:46;;;;;;;0.10;0.10;;;2.30;99.90;230.40;231737.00;;;;5008671;28;20254;-73
2023/03/07 03:25:14;;;;;;;0.10;0.10;;;2.30;99.90;230.40;231737.00;;;;5010060;28;20254;-75
2023/03/07 03:27:44;;;;;;;0.10;0.10;;;2.30;99.90;230.40;231737.00;;;;5010591;28;20199;-73
2023/03/07 03:30:14;;;;;;;0.10;0.10;;;2.30;99.90;230.40;231737.00;;;;5010825;28;20219;-73
2023/03/07 03:32:43;;;;;;;0.10;0.10;;;2.30;99.90;230.40;231737.00;;;;5017877;28;20195;-72
2023/03/07 03:35:14;;;;;;;0.10;0.10;;;2.30;99.90;230.40;231737.00;;;;5004996;28;20227;-72
2023/03/07 03:37:42;;;;;;;0.10;0.10;;;2.30;99.90;230.40;231737.00;;;;5008717;28;20196;-73
2023/03/07 03:40:16;;;;;;;0.10;0.10;;;2.30;99.90;230.40;231737.00;;;;5026813;28;20234;-72
2023/03/07 03:42:45;;;;;;;0.10;0.10;;;2.30;99.90;230.40;231737.00;;;;5007902;28;20278;-72
2023/03/07 03:45:15;;;;;;;0.10;0.10;;;2.30;99.90;230.40;231737.00;;;;5008258;28;20238;-72
2023/03/07 03:47:47;;;;;;;0.10;0.10;;;2.30;99.90;230.40;231737.00;;;;5021663;28;20195;-73
2023/03/07 03:50:15;;;;;;;0.10;0.10;;;2.30;99.90;230.40;231737.00;;;;5010018;28;20246;-73
2023/03/07 03:52:44;;;;;;;0.10;0.10;;;2.30;99.90;230.40;231737.00;;;;5009990;28;20663;-72
2023/03/07 03:55:13;;;;;;;0.10;0.10;;;2.30;99.90;230.40;231737.00;;;;5005165;28;20208;-72
2023/03/07 03:57:41;;;;;;;0.17;0.17;;;2.20;99.90;230.40;231737.00;;;;5009832;28;20452;-72
2023/03/07 04:00:13;;;;;;;0.10;0.10;;;2.20;99.90;230.40;231737.00;;;;5011015;28;20600;-71
2023/03/07 04:02:41;;;;;;;0.10;0.10;;;2.20;99.90;230.40;231737.00;;;;5012426;28;20200;-71
2023/03/07 04:05:15;;;;;;;0.10;0.10;;;2.20;99.90;230.40;231737.00;;;;5004101;28;20298;-72
2023/03/07 04:07:43;;;;;;;0.10;0.10;;;2.20;99.90;230.40;231737.00;;;;5011143;28;20207;-72
2023/03/07 04:10:12;;;;;;;0.10;0.10;;;2.20;99.90;230.40;231737.00;;;;5012437;28;20585;-72
2023/03/07 04:12:40;;;;;;;0.20;0.20;;;2.20;99.90;230.40;231737.00;;;;5009469;28;20291;-74
2023/03/07 04:15:09;;;;;;;0.10;0.10;;;2.20;99.90;230.40;231737.00;;;;5008001;28;20211;-72
2023/03/07 04:17:38;;;;;;;0.10;0.10;;;2.20;99.90;230.40;231737.00;;;;5029759;28;20200;-73
2023/03/07 04:20:13;;;;;;;0.10;0.10;;;2.20;99.90;230.40;231737.00;;;;5013315;28;20203;-73
2023/03/07 04:22:42;;;;;;;0.10;0.10;;;2.10;99.90;230.40;231737.00;;;;5013347;28;20209;-72
2023/03/07 04:25:11;;;;;;;0.10;0.10;;;2.20;99.90;230.40;231737.00;;;;5010701;28;20302;-72
2023/03/07 04:27:39;;;;;;;0.15;0.15;;;2.10;99.90;230.40;231737.00;;;;5013569;28;20577;-72
2023/03/07 04:30:10;;;;;;;0.10;0.10;;;2.20;99.90;230.40;231737.00;;;;5013175;28;20196;-71
2023/03/07 04:32:39;;;;;;;0.10;0.10;;;2.20;99.90;230.40;231737.00;;;;5014952;28;20751;-72
2023/03/07 04:35:08;;;;;;;0.10;0.10;;;2.20;99.90;230.40;231737.00;;;;5014076;28;20243;-72
2023/03/07 04:37:36;;;;;;;0.10;0.10;;;2.10;99.90;230.40;231737.00;;;;5014573;28;20211;-71
2023/03/07 04:40:06;;;;;;;0.10;0.10;;;2.10;99.90;230.40;231737.00;;;;5013372;28;20207;-72
2023/03/07 04:42:34;;;;;;;0.10;0.10;;;2.10;99.90;230.40;231737.00;;;;5013386;28;20202;-72
2023/03/07 04:45:03;;;;;;;0.10;0.10;;;2.10;99.90;230.40;231737.00;;;;5012711;28;20683;-72
2023/03/07 04:47:31;;;;;;;0.10;0.10;;;2.10;99.90;230.40;231737.00;;;;5012856;28;20322;-72
2023/03/07 04:49:59;;;;;;;0.10;0.10;;;2.10;99.90;230.40;231737.00;;;;5012643;28;20196;-72
2023/03/07 04:52:28;;;;;;;0.10;0.10;;;2.10;99.90;230.40;231737.00;;;;5006692;28;20262;-72
2023/03/07 04:54:56;;;;;;;0.10;0.10;;;2.10;99.90;230.40;231737.00;;;;5012934;28;20280;-73
2023/03/07 04:57:26;;;;;;;0.10;0.10;;;2.10;99.90;230.40;231737.00;;;;5009841;28;20204;-74
2023/03/07 04:59:55;;;;;;;0.10;0.10;;;2.10;99.90;230.40;231737.00;;;;5010534;28;20227;-74
2023/03/07 05:02:23;;;;;;;0.10;0.10;;;2.10;99.90;230.40;231737.00;;;;5013135;28;20689;-73
2023/03/07 05:04:52;;;;;;;0.10;0.10;;;2.10;99.90;230.40;231737.00;;;;5012573;28;20200;-73
2023/03/07 05:07:20;;;;;;;0.10;0.10;;;2.10;99.90;230.40;231737.00;;;;5010179;28;20200;-73
2023/03/07 05:09:50;;;;;;;0.10;0.10;;;2.10;99.90;230.40;231737.00;;;;5013283;28;20606;-73
2023/03/07 05:12:18;;;;;;;0.10;0.10;;;2.10;99.90;230.40;231737.00;;;;5013678;28;20203;-74
2023/03/07 05:14:47;;;;;;;0.10;0.10;;;2.10;99.90;230.40;231737.00;;;;5013680;28;20278;-73
2023/03/07 05:17:16;;;;;;;0.10;0.10;;;2.10;99.90;230.40;231737.00;;;;5013993;28;20270;-73
2023/03/07 05:19:44;;;;;;;0.20;0.20;;;2.10;99.90;230.40;231737.00;;;;5007711;28;20573;-73
2023/03/07 05:22:12;;;;;;;0.10;0.10;;;2.10;99.90;230.40;231737.00;;;;5027086;28;20277;-72
2023/03/07 05:24:43;;;;;;;0.10;0.10;;;2.10;99.90;230.40;231737.00;;;;5010306;28;20199;-72
2023/03/07 05:27:11;;;;;;;0.10;0.10;;;2.10;99.90;230.40;231737.00;;;;5011432;28;20219;-72
2023/03/07 05:29:39;;;;;;;0.10;0.10;;;2.10;99.90;230.40;231737.00;;;;5011771;28;20207;-72
2023/03/07 05:32:09;;;;;;;0.10;0.10;;;2.10;99.90;230.40;231737.00;;;;5009371;28;20306;-72
2023/03/07 05:34:37;;;;;;;0.20;0.20;;;2.10;99.90;230.40;231737.00;;;;5005510;28;20196;-72
2023/03/07 05:37:05;;;;;;;0.10;0.10;;;2.10;99.90;230.40;231737.00;;;;5011383;28;20269;-72
2023/03/07 05:39:33;;;;;;;0.10;0.10;;;2.10;99.90;230.40;231737.00;;;;5013245;28;20196;-72
2023/03/07 05:42:01;;;;;;;0.10;0.10;;;2.10;99.90;230.40;231737.00;;;;5006839;28;20303;-72
2023/03/07 05:44:30;;;;;;;0.10;0.10;;;2.10;99.90;230.40;231737.00;;;;5012368;28;20195;-72
2023/03/07 05:47:01;;;;;;;0.10;0.10;;;2.10;99.90;230.40;231737.00;;;;5000647;28;20616;-72
2023/03/07 05:49:31;;;;;;;0.10;0.10;;;2.10;99.90;230.40;231737.00;;;;5012234;28;20259;-72
2023/03/07 05:51:59;;;;;;;0.10;0.10;;;2.20;99.90;230.40;231737.00;;;;5011749;28;20231;-75
2023/03/07 05:54:27;;;;;;;0.10;0.10;;;2.20;99.90;230.40;231737.00;;;;5012325;28;20204;-72
2023/03/07 05:56:55;;;;;;;0.10;0.10;;;2.20;99.90;230.40;231737.00;;;;5024546;28;20322;-72
2023/03/07 05:59:24;;;;;;;0.10;0.10;;;2.20;99.90;230.40;231737.00;;;;5007574;28;20588;-72
2023/03/07 06:01:53;;;;;;;0.10;0.10;;;2.20;99.90;230.40;231737.00;;;;5007875;28;20226;-72
2023/03/07 06:04:21;;;;;;;0.10;0.10;;;2.20;99.90;230.40;231737.00;;;;5010998;28;20194;-71
2023/03/07 06:06:50;;;;;;;0.10;0.10;;;2.20;99.90;230.40;231737.00;;;;5024232;28;20679;-72
2023/03/07 06:09:21;;;;;;;0.10;0.10;;;2.20;99.90;230.40;231737.00;;;;5006816;28;20234;-72
2023/03/07 06:11:49;;;;;;;0.10;0.10;;;2.20;99.90;230.40;231737.00;;;;5011830;28;20215;-72
2023/03/07 06:14:17;;;;;;;0.10;0.10;;;2.30;99.90;230.40;231737.00;;;;5011823;28;20664;-72
2023/03/07 06:16:45;;;;;;;0.10;0.10;;;2.30;99.90;230.40;231737.00;;;;5011325;28;20789;-72
2023/03/07 06:19:14;;;;;;;0.10;0.10;;;2.30;99.90;230.40;231737.00;;;;5012880;28;20192;-72
2023/03/07 06:21:42;;;;;;;0.20;0.20;;;2.30;99.90;230.40;231737.00;;;;5015274;28;20216;-72
2023/03/07 06:24:11;;;;;;;0.10;0.10;;;2.30;99.90;230.40;231737.00;;;;5016518;28;20199;-71
2023/03/07 06:26:40;;;;;;;0.10;0.10;;;2.40;99.90;230.40;231737.00;;;;5015973;28;20705;-72
2023/03/07 06:29:08;;;;;;;0.10;0.10;;;2.40;99.90;230.40;231737.00;;;;5011659;28;20204;-73
2023/03/07 06:31:36;;;;;;;0.10;0.10;;;2.40;99.90;230.40;231737.00;;;;5012679;28;20764;-73
2023/03/07 06:34:04;;;;;;;0.10;0.10;;;2.40;99.90;230.40;231737.00;;;;5011641;28;20294;-72
2023/03/07 06:36:32;;;;;;;0.10;0.10;;;2.40;99.90;230.40;231737.00;;;;5011102;28;20226;-71
2023/03/07 06:39:02;;;;;;;0.10;0.10;;;2.40;99.90;230.40;231737.00;;;;5008238;28;20231;-71
2023/03/07 06:41:32;;;;;;;0.10;0.10;;;2.40;99.90;230.40;231737.00;;;;5008132;28;20212;-72
2023/03/07 06:44:01;;;;;;;0.10;0.10;;;2.50;99.90;230.40;231737.00;;;;5012359;28;20581;-71
2023/03/07 06:46:32;;;;;;;0.10;0.10;;;2.40;99.90;230.40;231737.00;;;;5008583;28;20204;-72
2023/03/07 06:49:04;;;;;;;0.10;0.10;;;2.50;99.90;230.40;231737.00;;;;5012216;28;20211;-72
2023/03/07 06:51:35;;;;;;;0.10;0.10;;;2.50;99.90;230.40;231737.00;;;;5011705;28;20219;-72
2023/03/07 06:54:05;;;;;;;0.10;0.10;;;2.50;99.90;230.40;231737.00;;;;5010843;28;20204;-72
2023/03/07 06:56:35;;;;;;;0.10;0.10;;;2.50;99.90;230.40;231737.00;;;;5011538;28;20282;-72
2023/03/07 06:59:03;;;;;;;0.10;0.10;;;2.60;99.90;230.40;231737.00;;;;5011016;28;20199;-72
2023/03/07 07:01:31;;;;;;;0.10;0.10;;;2.60;99.90;230.40;231737.00;;;;5005271;28;20219;-73
2023/03/07 07:04:00;;;;;;;0.10;0.10;;;2.60;99.90;230.40;231737.00;;;;5010828;28;20199;-73
2023/03/07 07:06:29;;;;;;;0.10;0.10;;;2.60;99.90;230.40;231737.00;;;;5010915;28;20204;-73
2023/03/07 07:08:59;;;;;;;0.10;0.10;;;2.70;99.90;230.40;231737.00;;;;5004993;28;20204;-73
2023/03/07 07:11:32;;;;;;;0.10;0.10;;;2.70;99.90;230.40;231737.00;;;;5009595;28;20260;-73
2023/03/07 07:14:03;;;;;;;0.10;0.10;;;2.70;99.90;230.40;231737.00;;;;5010658;28;20223;-73
2023/03/07 07:16:32;;;;;;;0.10;0.10;;;2.70;99.90;230.40;231737.00;;;;5007613;28;20231;-73
2023/03/07 07:19:00;;;;;;;0.10;0.10;;;2.70;99.90;230.40;231737.00;;;;5025150;28;20200;-73
2023/03/07 07:21:28;;;;;;;0.10;0.10;;;2.70;99.90;230.40;231737.00;;;;5010563;28;20215;-73
2023/03/07 07:23:56;;;;;;;0.10;0.10;;;2.80;99.90;230.40;231737.00;;;;5010521;28;20207;-73
2023/03/07 07:26:25;;;;;;;0.10;0.10;;;2.80;99.90;230.40;231737.00;;;;5008856;28;20196;-72
2023/03/07 07:28:53;;;;;;;0.10;0.10;;;2.80;99.90;230.40;231737.00;;;;5005701;28;20235;-72
2023/03/07 07:31:23;;;;;;;0.10;0.10;;;2.80;99.90;230.40;231737.00;;;;5011340;28;20297;-73
2023/03/07 07:33:51;;;;;;;0.10;0.10;;;2.90;99.90;230.40;231737.00;;;;5007569;28;20238;-72
2023/03/07 07:36:22;;;;;;;0.10;0.10;;;2.90;99.90;230.40;231737.00;;;;5010233;28;20219;-73
2023/03/07 07:38:51;;;;;;;0.10;0.10;;;3.00;99.90;230.40;231737.00;;;;5009483;28;20231;-73
2023/03/07 07:41:19;;;;;;;0.20;0.20;;;3.00;99.90;230.40;231737.00;;;;5011399;28;20215;-73
2023/03/07 07:43:53;;;;;;;0.10;0.10;;;3.10;99.90;230.40;231737.00;;;;5009461;28;20207;-72
2023/03/07 07:46:36;;;;;;;0.10;0.10;;;3.10;99.90;230.40;231737.00;;;;5009720;28;20206;-73
2023/03/07 07:49:06;;;;;;;0.10;0.10;;;3.10;99.90;230.40;231737.00;;;;5009693;28;20266;-73
2023/03/07 07:51:34;;;;;;;0.10;0.10;;;3.10;99.90;230.40;231737.00;;;;5010044;28;20235;-72
2023/03/07 07:54:02;;;;;;;0.10;0.10;;;3.10;99.90;230.40;231737.00;;;;5009555;28;20200;-73
2023/03/07 07:56:30;;;;;;;0.10;0.10;;;3.10;99.90;230.40;231737.00;;;;5010153;28;20199;-73
2023/03/07 07:58:58;;;;;;;0.10;0.10;;;3.20;99.90;230.40;231737.00;;;;5004636;28;20192;-73
2023/03/07 08:01:26;;;;;;;0.10;0.10;;;3.20;99.90;230.40;231737.00;;;;5009585;28;20307;-73
2023/03/07 08:03:55;;;;;;;0.10;0.10;;;3.20;99.90;230.40;231737.00;;;;5009926;28;20242;-73
2023/03/07 08:06:27;;;;;;;0.10;0.10;;;3.20;99.90;230.40;231737.00;;;;5011211;28;20198;-73
2023/03/07 08:08:56;;;;;;;0.10;0.10;;;3.20;99.90;230.40;231737.00;;;;5008918;28;20298;-73
2023/03/07 08:11:24;;;;;;;0.10;0.10;;;3.20;99.90;230.40;231737.00;;;;5015002;28;20284;-73
2023/03/07 08:13:52;;;;;;;0.10;0.10;;;3.20;99.90;230.40;231737.00;;;;5013431;28;20200;-73
2023/03/07 08:16:23;;;;;;;0.10;0.10;;;3.30;99.90;230.40;231737.00;;;;5011638;28;20206;-72
2023/03/07 08:18:54;;;;;;;0.10;0.10;;;3.30;99.90;230.40;231737.00;;;;5012288;28;20227;-73
2023/03/07 08:21:25;;;;;;;0.10;0.10;;;3.30;99.90;230.40;231737.00;;;;5016196;28;20220;-73
2023/03/07 08:23:54;;;;;;;0.10;0.10;;;3.30;99.90;230.40;231737.00;;;;5010338;28;20219;-73
2023/03/07 08:26:22;;;;;;;0.10;0.10;;;3.30;99.90;230.40;231737.00;;;;5006035;28;20543;-73
2023/03/07 08:28:50;;;;;;;0.10;0.10;;;3.30;99.90;230.40;231737.00;;;;5010575;28;20246;-73
2023/03/07 08:31:22;;;;;;;0.10;0.10;;;3.40;99.90;230.40;231737.00;;;;5011090;28;20231;-73
2023/03/07 08:33:51;;;;;;;0.10;0.10;;;3.40;99.90;230.40;231737.00;;;;5008340;28;20204;-73
2023/03/07 08:36:20;;;;;;;0.10;0.10;;;3.40;99.90;230.40;231737.00;;;;5010553;28;20196;-73
2023/03/07 08:38:51;;;;;;;0.10;0.10;;;3.40;99.90;230.40;231737.00;;;;5010698;28;20273;-73
2023/03/07 08:41:22;;;;;;;0.10;0.10;;;3.40;99.90;230.40;231737.00;;;;5008845;28;20227;-73
2023/03/07 08:43:50;;;;;;;0.10;0.10;;;3.40;99.90;230.40;231737.00;;;;5007635;28;20479;-73
2023/03/07 08:46:18;;;;;;;0.10;0.10;;;3.50;99.90;230.40;231737.00;;;;5008721;28;20258;-73
2023/03/07 08:48:47;;;;;;;0.10;0.10;;;3.50;99.90;230.40;231737.00;;;;5011079;28;20195;-73
2023/03/07 08:51:17;;;;;;;0.10;0.10;;;3.50;99.90;230.40;231737.00;;;;5010090;28;20231;-74
2023/03/07 08:53:46;;;;;;;0.10;0.10;;;3.50;99.90;230.40;231737.00;;;;5009144;28;20204;-73
2023/03/07 08:56:18;;;;;;;0.10;0.10;;;3.50;99.90;230.40;231737.00;;;;5013254;28;20204;-73
2023/03/07 08:58:46;;;;;;;0.10;0.10;;;3.50;99.90;230.40;231737.00;;;;5012186;28;20569;-73
2023/03/07 09:01:14;;;;;;;0.10;0.10;;;3.50;99.90;230.40;231737.00;;;;5012285;28;20636;-73
2023/03/07 09:03:43;;;;;;;0.10;0.10;;;3.50;99.90;230.40;231737.00;;;;5014809;28;20196;-73
2023/03/07 09:06:17;;;;;;;0.10;0.10;;;3.50;99.90;230.40;231737.00;;;;5013966;28;20204;-73
2023/03/07 09:08:46;;;;;;;0.10;0.10;;;3.60;99.90;230.40;231737.00;;;;5014404;28;20606;-73
2023/03/07 09:11:17;;;;;;;0.10;0.10;;;3.60;99.90;230.40;231737.00;;;;5009194;28;20695;-73
2023/03/07 09:13:45;;;;;;;0.10;0.10;;;3.60;99.90;230.40;231737.00;;;;5012477;28;20682;-72
2023/03/07 09:16:20;;;;;;;0.10;0.10;;;3.50;99.90;230.40;231737.00;;;;5012866;28;20611;-75
2023/03/07 09:18:48;;;;;;;0.10;0.10;;;3.60;99.90;230.40;231737.00;;;;5014530;28;20266;-74
2023/03/07 09:21:17;;;;;;;0.10;0.10;;;3.60;99.90;230.40;231737.00;;;;5013208;28;20274;-74
2023/03/07 09:23:45;;;;;;;0.10;0.10;;;3.60;99.90;230.40;231737.00;;;;5013356;28;20208;-72
2023/03/07 09:26:13;;;;;;;0.10;0.10;;;3.60;99.90;230.40;231737.00;;;;5008708;28;20204;-72
2023/03/07 09:28:43;;;;;;;0.10;0.10;;;3.60;99.90;230.40;231737.00;;;;5011236;28;20565;-73
2023/03/07 09:31:13;;;;;;;0.10;0.10;;;3.60;99.90;230.40;231737.00;;;;5014918;28;20216;-72
2023/03/07 09:33:42;;;;;;;0.10;0.10;;;3.60;99.90;230.40;231737.00;;;;5013761;28;20200;-72
2023/03/07 09:36:14;;;;;;;0.10;0.10;;;3.70;99.90;230.40;231737.00;;;;5004095;28;20299;-72
2023/03/07 09:38:42;;;;;;;0.10;0.10;;;3.70;99.90;230.40;231737.00;;;;5013380;28;20250;-72
2023/03/07 09:41:42;;;;;;;0.10;0.10;;;3.70;99.90;230.40;231737.00;;;;5024437;28;20273;-73
2023/03/07 09:44:23;;;;;;;0.10;0.10;;;3.70;99.90;230.40;231737.00;;;;5012720;28;20958;-73
2023/03/07 09:47:58;;;;;;;0.10;0.10;;;3.80;99.90;230.40;231737.00;;;;4991443;28;20691;-72
2023/03/07 09:50:40;;;;;;;0.10;0.10;;;3.90;99.90;230.40;231737.00;;;;5010341;28;20507;-73
2023/03/07 09:53:19;;;;;;;0.10;0.10;;;3.90;99.90;230.40;231737.00;;;;5012210;28;20211;-72
2023/03/07 09:55:50;;;;;;;0.10;0.10;;;4.00;99.90;230.40;231737.00;;;;5013433;28;20199;-74
2023/03/07 09:58:23;;;;;;;0.10;0.10;;;4.10;99.90;230.40;231737.00;;;;5005497;28;20646;-75
2023/03/07 10:00:59;;;;;;;0.10;0.10;;;4.10;99.90;230.40;231737.00;;;;5013482;28;20216;-73
2023/03/07 10:03:38;;;;;;;0.10;0.10;;;4.20;99.90;230.40;231737.00;;;;5014214;28;20199;-72
2023/03/07 10:06:16;;;;;;;0.10;0.10;;;4.30;99.90;230.40;231737.00;;;;5012928;28;20199;-73
2023/03/07 10:08:44;;;;;;;0.10;0.10;;;4.50;99.90;230.40;231737.00;;;;5012524;28;20203;-73
2023/03/07 10:11:27;;;;;;;0.10;0.10;;;4.50;99.90;230.40;231737.00;;;;5010592;28;20227;-72
2023/03/07 10:14:22;;;;;;;0.10;0.10;;;4.60;99.90;230.40;231737.00;;;;5014921;28;20292;-72
2023/03/07 10:17:04;;;;;;;0.10;0.10;;;4.60;99.90;230.40;231737.00;;;;5013071;28;20674;-72
2023/03/07 10:19:43;;;;;;;0.10;0.10;;;4.60;99.90;230.40;231737.00;;;;5014855;28;20251;-72
2023/03/07 10:22:22;;;;;;;0.10;0.10;;;4.60;99.90;230.40;231737.00;;;;5013367;28;20223;-72
2023/03/07 10:25:08;;;;;;;0.10;0.10;;;4.70;99.90;230.40;231737.00;;;;5012948;28;20199;-73
2023/03/07 10:27:38;;;;;;;0.10;0.10;;;4.70;99.90;230.40;231737.00;;;;5009688;28;20693;-73
2023/03/07 10:30:16;;;;;;;0.10;0.10;;;4.70;99.90;230.40;231737.00;;;;5011366;28;20207;-73
2023/03/07 10:32:48;;;;;;;0.10;0.10;;;4.70;99.90;230.40;231737.00;;;;5015442;28;20196;-73
2023/03/07 10:35:23;;;;;;;0.10;0.10;;;4.70;99.90;230.40;231737.00;;;;5010187;28;20710;-73
2023/03/07 10:37:57;;;;;;;0.10;0.10;;;4.60;99.90;230.40;231737.00;;;;5013148;28;20203;-73
2023/03/07 10:40:29;;;;;;;0.10;0.10;;;4.70;99.90;230.40;231737.00;;;;5012272;28;20211;-73
2023/03/07 10:42:59;;;;;;;0.10;0.10;;;4.70;99.90;230.40;231737.00;;;;5012547;28;20257;-73
2023/03/07 10:45:31;;;;;;;0.10;0.10;;;4.70;99.90;230.40;231737.00;;;;5011500;28;20203;-73
2023/03/07 10:48:09;;;;;;;0.10;0.10;;;4.70;99.90;230.40;231737.00;;;;5011912;28;20202;-73
2023/03/07 10:50:45;;;;;;;0.10;0.10;;;4.70;99.90;230.40;231737.00;;;;5012367;28;20231;-73
2023/03/07 10:53:26;;;;;;;0.10;0.10;;;4.70;99.90;230.40;231737.00;;;;5010700;28;20309;-73
2023/03/07 10:56:11;;;;;;;0.10;0.10;;;4.80;99.90;230.40;231737.00;;;;5013038;28;20221;-73
2023/03/07 10:58:40;;;;;;;0.10;0.10;;;4.90;99.90;230.40;231737.00;;;;5012337;28;20223;-73
2023/03/07 11:01:19;;;;;;;0.10;0.10;;;4.90;99.90;230.40;231737.00;;;;5010855;28;20227;-73